CYNA

Details ICAO CYNA (YNA)
Name NATASHQUAN
Region Canada
Timezone America/Montreal (UTC-4.0)
Plans Departing 13
Arriving 13
Stats Elevation 39 ft / 12 m (AMSL)
Location 50.190084° -61.788947°
Runways 1
Magnetic Variation 19.384° W
Sunrise 2018-05-27 08:07:46 UTC / 2018-05-27 04:07:46 Local
Sunset 2018-05-28 00:03:47 UTC / 2018-05-27 20:03:47 Local
Advertisement - Login to hide

Runways

ID Width Length Bearing (true) Bearing (mag) Surface Threshold Offset Overrun Length
14 100 ft / 30 m 4,486 ft / 1,367 m 117.90° 137.28° Asphalt 0 ft / 0 m 0 ft / 0 m
32 100 ft / 30 m 4,486 ft / 1,367 m 297.91° 317.29° Asphalt 0 ft / 0 m 0 ft / 0 m

Map

Weather


0- 5 10 15 20 25 30 35+ Temperature / ° C

Clouds and Precipitation
Forecast for 2018-05-27 18:00 UTC. Updated an hour ago

Ground ~20,000 ft ~40,000 ft Winds

METAR

CYNA 271800Z AUTO 24013G19KT 9SM CLR 09/01 A3020 RMK SLP228

TAF

TAF CYNA 271338Z 2714/2802 VRB03KT P6SM FEW240 BECMG 2714/2716 24012KT BECMG 2800/2802 18005KT RMK FCST BASED ON AUTO OBS. NXT FCST BY 272000Z

Frequencies

Recorded 126.25 MHz AWOS
Warning: Do not use this data for real-world aviation or navigation. No guarantee of current accuracy is given.